createdAt,value
2022-08-03T00:00:00.447Z,16
2022-08-03T00:01:00.472Z,19
2022-08-03T00:02:00.446Z,18
2022-08-03T00:03:00.535Z,17
2022-08-03T00:04:00.451Z,16
2022-08-03T00:05:00.457Z,14
2022-08-03T00:07:00.547Z,16
2022-08-03T00:09:00.451Z,15
2022-08-03T00:10:00.446Z,16
2022-08-03T00:11:00.490Z,15
2022-08-03T00:12:00.446Z,13
2022-08-03T00:13:00.451Z,15
2022-08-03T00:15:00.453Z,15
2022-08-03T00:16:00.485Z,16
2022-08-03T00:17:00.455Z,17
2022-08-03T00:18:00.450Z,16
2022-08-03T00:19:00.582Z,17
2022-08-03T00:20:00.447Z,19
2022-08-03T00:22:00.476Z,18
2022-08-03T00:23:00.456Z,19
2022-08-03T00:24:00.455Z,20
2022-08-03T00:25:00.453Z,18
2022-08-03T00:26:00.454Z,19
2022-08-03T00:28:00.477Z,18
2022-08-03T00:30:00.657Z,19
2022-08-03T00:33:00.484Z,18
2022-08-03T00:34:03.428Z,16
2022-08-03T00:35:00.453Z,17
2022-08-03T00:36:00.453Z,16
2022-08-03T00:38:00.477Z,17
2022-08-03T00:39:00.456Z,19
2022-08-03T00:40:00.452Z,18
2022-08-03T00:43:00.496Z,19
2022-08-03T00:44:00.452Z,17
2022-08-03T00:45:00.454Z,19
2022-08-03T00:48:00.556Z,17
2022-08-03T00:49:00.520Z,18
2022-08-03T00:50:00.449Z,16
2022-08-03T00:51:00.458Z,15
2022-08-03T00:52:00.451Z,16
2022-08-03T00:55:00.477Z,18
2022-08-03T00:56:00.451Z,19
2022-08-03T01:00:00.479Z,18
2022-08-03T01:05:00.476Z,17
2022-08-03T01:06:00.452Z,18
2022-08-03T01:09:00.493Z,19
2022-08-03T01:11:00.451Z,18
2022-08-03T01:13:00.458Z,17
2022-08-03T01:14:02.130Z,18
2022-08-03T01:15:00.434Z,17
2022-08-03T01:18:00.581Z,18
2022-08-03T01:20:00.482Z,19
2022-08-03T01:21:00.461Z,20
2022-08-03T01:22:00.463Z,19
2022-08-03T01:23:00.458Z,20
2022-08-03T01:24:00.455Z,17
2022-08-03T01:25:00.482Z,18
2022-08-03T01:28:00.519Z,15
2022-08-03T01:29:00.460Z,16
2022-08-03T01:30:00.500Z,15
2022-08-03T01:32:51.851Z,16
2022-08-03T01:33:01.775Z,18
2022-08-03T01:34:00.459Z,19
2022-08-03T01:35:00.486Z,18
2022-08-03T01:37:00.588Z,16
2022-08-03T01:38:00.458Z,17
2022-08-03T01:39:00.478Z,16
2022-08-03T01:40:00.490Z,17
2022-08-03T01:41:00.458Z,19
2022-08-03T01:42:00.463Z,20
2022-08-03T01:43:00.459Z,21
2022-08-03T01:44:27.064Z,19
2022-08-03T01:45:00.473Z,19
2022-08-03T01:46:00.462Z,18
2022-08-03T01:48:01.549Z,16
2022-08-03T01:51:00.460Z,15
2022-08-03T01:52:03.720Z,14
2022-08-03T01:53:00.460Z,15
2022-08-03T01:54:00.461Z,17
2022-08-03T01:55:00.536Z,16
2022-08-03T01:56:00.461Z,17
2022-08-03T01:58:05.154Z,16
2022-08-03T01:59:01.486Z,17
2022-08-03T02:00:00.502Z,18
2022-08-03T02:01:00.488Z,19
2022-08-03T02:03:00.461Z,21
2022-08-03T02:05:00.506Z,19
2022-08-03T02:07:02.483Z,17
2022-08-03T02:07:03.027Z,16
2022-08-03T02:08:00.476Z,17
2022-08-03T02:09:00.460Z,15
2022-08-03T02:10:00.494Z,16
2022-08-03T02:11:00.463Z,18
2022-08-03T02:12:00.462Z,20
2022-08-03T02:13:00.462Z,18
2022-08-03T02:14:00.463Z,19
2022-08-03T02:15:00.912Z,19
2022-08-03T02:17:00.527Z,18
2022-08-03T02:18:00.463Z,19
2022-08-03T02:19:00.468Z,20
2022-08-03T02:20:00.494Z,19
2022-08-03T02:22:01.193Z,18
2022-08-03T02:23:00.466Z,17
2022-08-03T02:24:00.468Z,16
2022-08-03T02:25:00.508Z,15
2022-08-03T02:26:00.475Z,14
2022-08-03T02:27:00.467Z,13
2022-08-03T02:28:00.467Z,14
2022-08-03T02:29:00.467Z,16
2022-08-03T02:30:00.500Z,17
2022-08-03T02:32:00.466Z,19
2022-08-03T02:33:00.468Z,20
2022-08-03T02:34:00.470Z,19
2022-08-03T02:35:00.497Z,18
2022-08-03T02:36:00.472Z,17
2022-08-03T02:37:00.475Z,16
2022-08-03T02:38:00.468Z,15
2022-08-03T02:39:00.467Z,13
2022-08-03T02:41:00.468Z,16
2022-08-03T02:42:00.469Z,15
2022-08-03T02:43:00.471Z,16
2022-08-03T02:44:05.841Z,17
2022-08-03T02:45:00.512Z,18
2022-08-03T02:46:00.470Z,17
2022-08-03T02:48:00.470Z,16
2022-08-03T02:50:00.520Z,18
2022-08-03T02:52:00.476Z,20
2022-08-03T02:53:00.472Z,22
2022-08-03T02:54:00.473Z,21
2022-08-03T02:56:00.607Z,18
2022-08-03T02:57:00.472Z,19
2022-08-03T02:58:01.382Z,17
2022-08-03T03:00:00.475Z,17
2022-08-03T03:01:00.513Z,18
2022-08-03T03:02:00.477Z,19
2022-08-03T03:03:00.750Z,20
2022-08-03T03:04:00.472Z,18
2022-08-03T03:05:51.974Z,19
2022-08-03T03:06:00.450Z,18
2022-08-03T03:07:01.749Z,16
2022-08-03T03:09:00.475Z,17
2022-08-03T03:11:00.480Z,16
2022-08-03T03:12:00.476Z,18
2022-08-03T03:14:00.474Z,16
2022-08-03T03:15:00.475Z,17
2022-08-03T03:16:00.475Z,16
2022-08-03T03:17:00.475Z,15
2022-08-03T03:18:00.476Z,14
2022-08-03T03:19:00.475Z,18
2022-08-03T03:20:00.475Z,16
2022-08-03T03:21:00.479Z,18
2022-08-03T03:23:00.483Z,19
2022-08-03T03:24:00.476Z,15
2022-08-03T03:25:00.478Z,16
2022-08-03T03:26:00.476Z,14
2022-08-03T03:27:00.475Z,16
2022-08-03T03:28:00.485Z,15
2022-08-03T03:29:00.484Z,16
2022-08-03T03:30:00.475Z,16
2022-08-03T03:32:00.477Z,15
2022-08-03T03:33:00.476Z,16
2022-08-03T03:34:00.479Z,17
2022-08-03T03:35:00.477Z,18
2022-08-03T03:36:00.478Z,19
2022-08-03T03:37:00.477Z,18
2022-08-03T03:39:00.478Z,17
2022-08-03T03:40:00.458Z,16
2022-08-03T03:41:00.479Z,15
2022-08-03T03:44:00.480Z,16
2022-08-03T03:45:00.480Z,16
2022-08-03T03:47:00.610Z,17
2022-08-03T03:48:00.481Z,16
2022-08-03T03:50:00.481Z,15
2022-08-03T03:51:00.481Z,16
2022-08-03T03:55:01.426Z,17
2022-08-03T03:56:02.742Z,15
2022-08-03T03:57:00.482Z,17
2022-08-03T03:58:00.484Z,16
2022-08-03T03:59:00.484Z,15
2022-08-03T04:00:00.482Z,16
2022-08-03T04:01:00.595Z,17
2022-08-03T04:02:00.481Z,16
2022-08-03T04:04:00.483Z,17
2022-08-03T04:06:00.482Z,16
2022-08-03T04:07:00.484Z,15
2022-08-03T04:08:00.483Z,17
2022-08-03T04:12:00.485Z,18
2022-08-03T04:15:00.489Z,16
2022-08-03T04:18:00.550Z,15
2022-08-03T04:19:00.486Z,16
2022-08-03T04:20:00.486Z,17
2022-08-03T04:21:00.531Z,19
2022-08-03T04:22:00.488Z,17
2022-08-03T04:23:00.486Z,18
2022-08-03T04:24:00.486Z,17
2022-08-03T04:25:00.487Z,18
2022-08-03T04:26:00.521Z,19
2022-08-03T04:27:00.486Z,20
2022-08-03T04:30:00.488Z,19
2022-08-03T04:31:00.517Z,17
2022-08-03T04:35:00.490Z,16
2022-08-03T04:38:00.617Z,18
2022-08-03T04:42:02.349Z,16
2022-08-03T04:43:00.472Z,13
2022-08-03T04:44:00.503Z,14
2022-08-03T04:45:01.547Z,14
2022-08-03T04:46:00.521Z,15
2022-08-03T04:48:02.131Z,16
2022-08-03T04:49:00.535Z,18
2022-08-03T04:51:00.520Z,19
2022-08-03T04:52:00.494Z,20
2022-08-03T04:53:00.508Z,19
2022-08-03T04:54:00.494Z,17
2022-08-03T04:55:00.494Z,18
2022-08-03T04:56:01.372Z,16
2022-08-03T04:57:00.494Z,15
2022-08-03T04:58:00.494Z,16
2022-08-03T05:00:02.429Z,15
2022-08-03T05:03:00.497Z,17
2022-08-03T05:04:00.497Z,18
2022-08-03T05:08:00.734Z,17
2022-08-03T05:09:00.496Z,16
2022-08-03T05:10:01.633Z,17
2022-08-03T05:11:00.524Z,15
2022-08-03T05:12:00.498Z,17
2022-08-03T05:13:00.499Z,16
2022-08-03T05:15:00.504Z,15
2022-08-03T05:16:00.532Z,16
2022-08-03T05:17:00.506Z,14
2022-08-03T05:18:00.507Z,15
2022-08-03T05:19:00.563Z,13
2022-08-03T05:21:00.527Z,14
2022-08-03T05:22:00.499Z,15
2022-08-03T05:23:00.511Z,14
2022-08-03T05:24:00.501Z,15
2022-08-03T05:25:00.499Z,16
2022-08-03T05:26:00.540Z,15
2022-08-03T05:28:00.499Z,16
2022-08-03T05:29:00.499Z,18
2022-08-03T05:30:26.672Z,18
2022-08-03T05:31:00.503Z,17
2022-08-03T05:33:00.501Z,19
2022-08-03T05:34:00.524Z,17
2022-08-03T05:35:00.501Z,16
2022-08-03T05:38:00.486Z,14
2022-08-03T05:41:20.083Z,15
2022-08-03T05:43:00.480Z,16
2022-08-03T05:45:00.503Z,17
2022-08-03T05:46:01.493Z,16
2022-08-03T05:47:00.502Z,17
2022-08-03T05:48:00.503Z,16
2022-08-03T05:50:00.502Z,17
2022-08-03T05:52:09.338Z,15
2022-08-03T05:53:00.506Z,16
2022-08-03T05:54:00.506Z,17
2022-08-03T05:56:02.661Z,18
2022-08-03T05:57:00.505Z,20
2022-08-03T05:58:00.509Z,18
2022-08-03T05:59:11.505Z,17
2022-08-03T06:00:00.489Z,15
2022-08-03T06:02:00.573Z,16
2022-08-03T06:03:00.508Z,18
2022-08-03T06:04:00.509Z,19
2022-08-03T06:05:00.519Z,20
2022-08-03T06:06:00.806Z,21
2022-08-03T06:07:00.523Z,20
2022-08-03T06:08:00.509Z,18
2022-08-03T06:09:00.510Z,17
2022-08-03T06:10:34.793Z,18
2022-08-03T06:12:00.489Z,17
2022-08-03T06:14:00.510Z,18
2022-08-03T06:15:00.512Z,19
2022-08-03T06:16:00.538Z,20
2022-08-03T06:18:02.072Z,19
2022-08-03T06:20:00.510Z,17
2022-08-03T06:22:00.511Z,18
2022-08-03T06:23:01.317Z,19
2022-08-03T06:24:00.513Z,17
2022-08-03T06:26:00.602Z,16
2022-08-03T06:30:00.511Z,17
2022-08-03T06:32:00.553Z,18
2022-08-03T06:35:00.514Z,19
2022-08-03T06:37:02.225Z,18
2022-08-03T06:38:00.511Z,17
2022-08-03T06:39:00.511Z,18
2022-08-03T06:40:00.511Z,17
2022-08-03T06:41:00.510Z,16
2022-08-03T06:45:00.513Z,16
2022-08-03T06:46:00.514Z,17
2022-08-03T06:52:02.909Z,18
2022-08-03T06:53:00.544Z,19
2022-08-03T06:54:00.521Z,20
2022-08-03T06:58:03.380Z,18
2022-08-03T06:59:00.516Z,17
2022-08-03T07:00:06.921Z,17
2022-08-03T07:02:00.518Z,18
2022-08-03T07:04:00.563Z,17
2022-08-03T07:05:00.519Z,19
2022-08-03T07:06:00.523Z,18
2022-08-03T07:07:00.519Z,16
2022-08-03T07:08:00.548Z,14
2022-08-03T07:09:00.519Z,15
2022-08-03T07:10:00.519Z,14
2022-08-03T07:12:00.520Z,15
2022-08-03T07:13:00.546Z,18
2022-08-03T07:14:00.521Z,17
2022-08-03T07:15:02.093Z,17
2022-08-03T07:16:00.521Z,16
2022-08-03T07:18:00.553Z,15
2022-08-03T07:20:00.537Z,16
2022-08-03T07:22:02.156Z,18
2022-08-03T07:23:00.550Z,19
2022-08-03T07:24:00.523Z,21
2022-08-03T07:25:00.529Z,22
2022-08-03T07:26:00.522Z,23
2022-08-03T07:27:00.521Z,22
2022-08-03T07:29:00.549Z,20
2022-08-03T07:30:00.534Z,17
2022-08-03T07:31:00.525Z,18
2022-08-03T07:32:00.522Z,19
2022-08-03T07:33:00.552Z,15
2022-08-03T07:35:01.504Z,16
2022-08-03T07:36:00.522Z,15
2022-08-03T07:38:00.547Z,16
2022-08-03T07:41:00.521Z,17
2022-08-03T07:44:05.556Z,18
2022-08-03T07:45:00.522Z,20
2022-08-03T07:46:00.523Z,19
2022-08-03T07:47:00.548Z,17
2022-08-03T07:48:00.550Z,20
2022-08-03T07:49:00.546Z,19
2022-08-03T07:50:00.525Z,17
2022-08-03T07:51:00.524Z,18
2022-08-03T07:52:00.524Z,21
2022-08-03T07:53:00.552Z,19
2022-08-03T07:56:00.653Z,18
2022-08-03T07:57:00.524Z,16
2022-08-03T07:58:00.564Z,17
2022-08-03T08:00:02.074Z,18
2022-08-03T08:01:00.617Z,19
2022-08-03T08:03:00.973Z,18
2022-08-03T08:06:00.590Z,17
2022-08-03T08:07:00.528Z,19
2022-08-03T08:09:00.552Z,18
2022-08-03T08:11:00.554Z,17
2022-08-03T08:12:00.527Z,15
2022-08-03T08:13:00.527Z,14
2022-08-03T08:14:00.558Z,15
2022-08-03T08:15:00.532Z,15
2022-08-03T08:16:00.548Z,14
2022-08-03T08:17:03.331Z,13
2022-08-03T08:18:00.529Z,15
2022-08-03T08:19:00.561Z,16
2022-08-03T08:21:00.529Z,17
2022-08-03T08:22:02.689Z,21
2022-08-03T08:23:01.061Z,19
2022-08-03T08:24:00.579Z,17
2022-08-03T08:26:00.666Z,18
2022-08-03T08:27:00.531Z,16
2022-08-03T08:28:21.932Z,17
2022-08-03T08:29:00.589Z,16
2022-08-03T08:30:04.831Z,16
2022-08-03T08:31:00.544Z,15
2022-08-03T08:35:00.563Z,16
2022-08-03T08:36:00.531Z,19
2022-08-03T08:41:00.534Z,18
2022-08-03T08:42:00.534Z,17
2022-08-03T08:43:00.532Z,18
2022-08-03T08:44:00.535Z,19
2022-08-03T08:45:00.648Z,19
2022-08-03T08:46:00.540Z,17
2022-08-03T08:47:00.558Z,16
2022-08-03T08:48:03.486Z,14
2022-08-03T08:49:00.622Z,13
2022-08-03T08:50:09.552Z,14
2022-08-03T08:51:00.542Z,15
2022-08-03T08:52:01.312Z,17
2022-08-03T08:53:00.902Z,19
2022-08-03T08:55:00.567Z,16
2022-08-03T08:56:01.185Z,18
2022-08-03T08:58:00.531Z,16
2022-08-03T08:59:00.605Z,17
2022-08-03T09:00:00.744Z,19
2022-08-03T09:01:00.570Z,18
2022-08-03T09:03:00.537Z,19
2022-08-03T09:04:00.843Z,17
2022-08-03T09:06:00.645Z,18
2022-08-03T09:07:19.072Z,17
2022-08-03T09:09:00.511Z,18
2022-08-03T09:10:05.383Z,19
2022-08-03T09:11:00.541Z,18
2022-08-03T09:12:14.536Z,19
2022-08-03T09:13:00.513Z,20
2022-08-03T09:14:00.536Z,19
2022-08-03T09:15:16.302Z,18
2022-08-03T09:16:01.070Z,17
2022-08-03T09:17:00.537Z,15
2022-08-03T09:18:00.538Z,14
2022-08-03T09:22:00.536Z,15
2022-08-03T09:24:03.619Z,16
2022-08-03T09:25:21.939Z,15
2022-08-03T09:26:00.516Z,17
2022-08-03T09:28:00.539Z,16
2022-08-03T09:29:04.834Z,17
2022-08-03T09:30:00.565Z,17
2022-08-03T09:31:00.544Z,15
2022-08-03T09:32:00.541Z,16
2022-08-03T09:33:00.540Z,15
2022-08-03T09:35:00.583Z,16
2022-08-03T09:39:00.544Z,15
2022-08-03T09:40:00.567Z,14
2022-08-03T09:45:00.569Z,15
2022-08-03T09:46:00.538Z,17
2022-08-03T09:47:00.539Z,18
2022-08-03T09:49:00.562Z,19
2022-08-03T09:50:00.564Z,18
2022-08-03T09:52:30.330Z,17
2022-08-03T09:53:00.518Z,18
2022-08-03T09:54:00.601Z,17
2022-08-03T09:55:00.575Z,19
2022-08-03T09:58:00.609Z,18
2022-08-03T09:59:00.541Z,17
2022-08-03T10:00:04.852Z,16
2022-08-03T10:01:00.636Z,15
2022-08-03T10:02:00.543Z,14
2022-08-03T10:03:00.542Z,15
2022-08-03T10:04:03.670Z,14
2022-08-03T10:05:00.775Z,15
2022-08-03T10:08:00.675Z,16
2022-08-03T10:09:00.544Z,17
2022-08-03T10:10:29.207Z,16
2022-08-03T10:11:00.526Z,19
2022-08-03T10:12:00.546Z,18
2022-08-03T10:14:01.396Z,19
2022-08-03T10:15:00.587Z,18
2022-08-03T10:16:25.160Z,16
2022-08-03T10:17:00.524Z,17
2022-08-03T10:18:00.547Z,15
2022-08-03T10:19:00.551Z,14
2022-08-03T10:21:00.544Z,16
2022-08-03T10:22:00.545Z,17
2022-08-03T10:23:00.547Z,19
2022-08-03T10:24:00.557Z,18
2022-08-03T10:25:00.546Z,17
2022-08-03T10:26:00.546Z,16
2022-08-03T10:27:00.548Z,14
2022-08-03T10:28:00.546Z,11
2022-08-03T10:29:00.550Z,12
2022-08-03T10:30:00.556Z,13
2022-08-03T10:31:00.555Z,15
2022-08-03T10:33:00.562Z,18
2022-08-03T10:35:01.792Z,17
2022-08-03T10:36:00.551Z,15
2022-08-03T10:37:00.556Z,16
2022-08-03T10:38:00.548Z,15
2022-08-03T10:39:00.549Z,16
2022-08-03T10:40:00.548Z,17
2022-08-03T10:41:00.548Z,18
2022-08-03T10:42:02.523Z,19
2022-08-03T10:43:00.548Z,17
2022-08-03T10:45:00.561Z,15
2022-08-03T10:46:00.613Z,14
2022-08-03T10:47:00.612Z,12
2022-08-03T10:48:00.613Z,14
2022-08-03T10:49:00.673Z,13
2022-08-03T10:51:00.615Z,14
2022-08-03T10:52:00.617Z,15
2022-08-03T10:54:01.631Z,16
2022-08-03T10:55:00.569Z,18
2022-08-03T10:56:00.630Z,19
2022-08-03T10:58:00.783Z,20
2022-08-03T11:00:00.675Z,19
2022-08-03T11:01:00.686Z,16
2022-08-03T11:04:00.619Z,17
2022-08-03T11:05:00.621Z,15
2022-08-03T11:06:00.820Z,18
2022-08-03T11:07:00.563Z,16
2022-08-03T11:08:00.633Z,18
2022-08-03T11:10:00.633Z,20
2022-08-03T11:11:00.719Z,19
2022-08-03T11:12:00.622Z,22
2022-08-03T11:14:00.633Z,20
2022-08-03T11:15:00.682Z,20
2022-08-03T11:18:00.710Z,19
2022-08-03T11:19:00.556Z,20
2022-08-03T11:20:00.559Z,19
2022-08-03T11:22:00.568Z,17
2022-08-03T11:23:00.623Z,16
2022-08-03T11:24:02.351Z,17
2022-08-03T11:25:00.563Z,15
2022-08-03T11:26:00.633Z,16
2022-08-03T11:28:00.625Z,15
2022-08-03T11:29:00.626Z,14
2022-08-03T11:30:00.628Z,16
2022-08-03T11:33:00.730Z,20
2022-08-03T11:35:00.563Z,19
2022-08-03T11:36:00.630Z,20
2022-08-03T11:37:00.704Z,18
2022-08-03T11:38:01.635Z,15
2022-08-03T11:41:00.581Z,14
2022-08-03T11:43:00.738Z,15
2022-08-03T11:45:00.698Z,16
2022-08-03T11:46:00.643Z,15
2022-08-03T11:47:00.642Z,16
2022-08-03T11:50:00.750Z,17
2022-08-03T11:51:00.636Z,18
2022-08-03T11:52:00.633Z,20
2022-08-03T11:54:00.636Z,19
2022-08-03T11:55:00.802Z,18
2022-08-03T11:56:00.634Z,16
2022-08-03T11:57:00.633Z,15
2022-08-03T11:59:00.622Z,14
2022-08-03T12:00:00.599Z,15
2022-08-03T12:02:00.635Z,16
2022-08-03T12:03:00.662Z,17
2022-08-03T12:04:00.633Z,18
2022-08-03T12:06:00.779Z,19
2022-08-03T12:07:00.633Z,17
2022-08-03T12:08:02.972Z,18
2022-08-03T12:09:00.636Z,17
2022-08-03T12:10:00.632Z,19
2022-08-03T12:11:00.720Z,18
2022-08-03T12:12:01.312Z,20
2022-08-03T12:13:00.630Z,19
2022-08-03T12:15:00.634Z,18
2022-08-03T12:17:00.773Z,17
2022-08-03T12:18:00.637Z,16
2022-08-03T12:19:00.638Z,19
2022-08-03T12:20:00.647Z,18
2022-08-03T12:21:00.570Z,17
2022-08-03T12:22:00.596Z,18
2022-08-03T12:24:00.849Z,16
2022-08-03T12:27:00.725Z,15
2022-08-03T12:29:00.570Z,16
2022-08-03T12:30:00.636Z,17
2022-08-03T12:31:00.637Z,18
2022-08-03T12:35:02.276Z,17
2022-08-03T12:36:00.666Z,16
2022-08-03T12:37:00.724Z,17
2022-08-03T12:38:00.641Z,16
2022-08-03T12:40:04.163Z,15
2022-08-03T12:41:00.709Z,16
2022-08-03T12:42:01.814Z,17
2022-08-03T12:43:00.594Z,19
2022-08-03T12:45:00.708Z,18
2022-08-03T12:46:00.642Z,19
2022-08-03T12:47:00.685Z,17
2022-08-03T12:48:00.645Z,15
2022-08-03T12:49:00.697Z,14
2022-08-03T12:50:00.652Z,16
2022-08-03T12:51:00.643Z,17
2022-08-03T12:53:00.740Z,19
2022-08-03T12:54:00.647Z,21
2022-08-03T12:55:00.651Z,20
2022-08-03T12:56:05.546Z,18
2022-08-03T12:57:00.818Z,19
2022-08-03T12:58:00.580Z,18
2022-08-03T12:59:00.648Z,17
2022-08-03T13:00:00.661Z,17
2022-08-03T13:01:01.227Z,16
2022-08-03T13:04:00.646Z,15
2022-08-03T13:06:00.650Z,18
2022-08-03T13:07:02.861Z,19
2022-08-03T13:08:00.723Z,21
2022-08-03T13:11:00.653Z,20
2022-08-03T13:12:02.551Z,17
2022-08-03T13:13:00.728Z,15
2022-08-03T13:14:00.648Z,14
2022-08-03T13:15:00.657Z,14
2022-08-03T13:16:00.649Z,12
2022-08-03T13:17:00.648Z,13
2022-08-03T13:19:00.656Z,14
2022-08-03T13:20:00.651Z,16
2022-08-03T13:21:00.650Z,17
2022-08-03T13:22:03.778Z,19
2022-08-03T13:23:01.114Z,21
2022-08-03T13:24:00.652Z,20
2022-08-03T13:26:00.783Z,21
2022-08-03T13:27:00.658Z,20
2022-08-03T13:28:02.762Z,19
2022-08-03T13:29:00.632Z,21
2022-08-03T13:30:00.662Z,19
2022-08-03T13:31:00.654Z,16
2022-08-03T13:32:00.589Z,15
2022-08-03T13:34:00.589Z,13
2022-08-03T13:35:00.592Z,15
2022-08-03T13:36:00.590Z,16
2022-08-03T13:37:08.723Z,17
2022-08-03T13:38:00.727Z,16
2022-08-03T13:39:00.588Z,17
2022-08-03T13:40:02.319Z,15
2022-08-03T13:41:00.589Z,16
2022-08-03T13:43:00.620Z,17
2022-08-03T13:44:25.320Z,16
2022-08-03T13:45:00.572Z,17
2022-08-03T13:47:00.591Z,16
2022-08-03T13:48:00.627Z,17
2022-08-03T13:49:00.590Z,18
2022-08-03T13:50:02.671Z,19
2022-08-03T13:51:05.164Z,17
2022-08-03T13:52:00.589Z,19
2022-08-03T13:53:00.637Z,17
2022-08-03T13:56:00.653Z,18
2022-08-03T13:57:00.790Z,17
2022-08-03T13:58:01.493Z,19
2022-08-03T14:00:00.596Z,20
2022-08-03T14:03:09.463Z,19
2022-08-03T14:05:00.592Z,16
2022-08-03T14:06:00.596Z,15
2022-08-03T14:07:00.590Z,16
2022-08-03T14:08:03.052Z,15
2022-08-03T14:11:00.589Z,16
2022-08-03T14:12:03.839Z,14
2022-08-03T14:14:00.620Z,15
2022-08-03T14:15:01.622Z,16
2022-08-03T14:16:00.590Z,18
2022-08-03T14:19:00.617Z,17
2022-08-03T14:21:04.912Z,15
2022-08-03T14:22:05.258Z,17
2022-08-03T14:27:07.285Z,16
2022-08-03T14:29:00.615Z,15
2022-08-03T14:30:00.628Z,14
2022-08-03T14:31:00.655Z,15
2022-08-03T14:33:00.951Z,14
2022-08-03T14:34:00.596Z,16
2022-08-03T14:35:00.593Z,19
2022-08-03T14:36:00.591Z,17
2022-08-03T14:37:00.592Z,15
2022-08-03T14:38:00.631Z,16
2022-08-03T14:39:01.444Z,15
2022-08-03T14:40:01.714Z,14
2022-08-03T14:41:00.589Z,15
2022-08-03T14:42:00.591Z,18
2022-08-03T14:43:00.633Z,19
2022-08-03T14:44:02.285Z,20
2022-08-03T14:45:03.549Z,21
2022-08-03T14:47:00.657Z,19
2022-08-03T14:50:12.630Z,18
2022-08-03T14:50:35.410Z,17
2022-08-03T14:52:00.571Z,18
2022-08-03T14:53:00.594Z,17
2022-08-03T14:55:00.659Z,18
2022-08-03T14:56:00.594Z,17
2022-08-03T15:00:00.693Z,17
2022-08-03T15:02:01.922Z,16
2022-08-03T15:03:00.636Z,18
2022-08-03T15:05:00.597Z,17
2022-08-03T15:06:00.596Z,18
2022-08-03T15:08:04.168Z,17
2022-08-03T15:09:20.955Z,18
2022-08-03T15:11:00.597Z,17
2022-08-03T15:13:00.598Z,16
2022-08-03T15:15:00.600Z,16
2022-08-03T15:16:00.601Z,15
2022-08-03T15:17:00.669Z,16
2022-08-03T15:18:00.781Z,15
2022-08-03T15:20:19.596Z,16
2022-08-03T15:21:00.579Z,18
2022-08-03T15:22:00.914Z,16
2022-08-03T15:23:00.601Z,17
2022-08-03T15:25:00.627Z,15
2022-08-03T15:26:02.585Z,14
2022-08-03T15:30:06.318Z,14
2022-08-03T15:31:00.613Z,17
2022-08-03T15:34:00.600Z,15
2022-08-03T15:35:00.625Z,16
2022-08-03T15:36:00.598Z,13
2022-08-03T15:37:00.598Z,12
2022-08-03T15:39:00.689Z,15
2022-08-03T15:40:01.204Z,13
2022-08-03T15:41:00.603Z,14
2022-08-03T15:42:00.600Z,16
2022-08-03T15:43:00.608Z,15
2022-08-03T15:44:00.601Z,14
2022-08-03T15:45:00.630Z,16
2022-08-03T15:46:30.033Z,17
2022-08-03T15:47:00.576Z,16
2022-08-03T15:48:00.602Z,17
2022-08-03T15:50:00.641Z,18
2022-08-03T15:52:00.600Z,19
2022-08-03T15:55:00.641Z,18
2022-08-03T15:56:00.600Z,19
2022-08-03T15:57:00.598Z,18
2022-08-03T15:59:11.666Z,17
2022-08-03T16:00:00.640Z,16
2022-08-03T16:01:00.629Z,15
2022-08-03T16:03:00.602Z,17
2022-08-03T16:04:00.600Z,18
2022-08-03T16:06:00.668Z,20
2022-08-03T16:07:00.604Z,19
2022-08-03T16:08:03.370Z,17
2022-08-03T16:09:00.602Z,16
2022-08-03T16:10:00.603Z,17
2022-08-03T16:11:00.602Z,16
2022-08-03T16:12:00.601Z,15
2022-08-03T16:13:00.606Z,17
2022-08-03T16:15:00.601Z,17
2022-08-03T16:16:00.610Z,16
2022-08-03T16:18:00.603Z,15
2022-08-03T16:20:00.609Z,14
2022-08-03T16:22:00.835Z,15
2022-08-03T16:23:00.641Z,16
2022-08-03T16:24:00.602Z,19
2022-08-03T16:25:00.605Z,20
2022-08-03T16:26:00.637Z,19
2022-08-03T16:29:00.618Z,16
2022-08-03T16:30:00.602Z,15
2022-08-03T16:31:00.630Z,17
2022-08-03T16:33:00.601Z,18
2022-08-03T16:34:00.612Z,20
2022-08-03T16:35:00.604Z,19
2022-08-03T16:36:00.628Z,17
2022-08-03T16:37:07.903Z,16
2022-08-03T16:38:00.584Z,15
2022-08-03T16:40:00.604Z,16
2022-08-03T16:41:00.641Z,17
2022-08-03T16:42:01.765Z,16
2022-08-03T16:44:00.606Z,14
2022-08-03T16:45:00.607Z,14
2022-08-03T16:46:00.633Z,16
2022-08-03T16:47:00.606Z,17
2022-08-03T16:49:00.606Z,18
2022-08-03T16:51:00.651Z,16
2022-08-03T16:54:05.229Z,15
2022-08-03T16:56:00.651Z,16
2022-08-03T16:57:00.610Z,17
2022-08-03T16:58:00.683Z,16
2022-08-03T16:59:00.610Z,18
2022-08-03T17:00:00.609Z,16
2022-08-03T17:01:00.660Z,15
2022-08-03T17:02:00.667Z,16
2022-08-03T17:03:00.613Z,17
2022-08-03T17:04:02.912Z,16
2022-08-03T17:05:00.611Z,18
2022-08-03T17:08:00.738Z,17
2022-08-03T17:10:00.645Z,18
2022-08-03T17:11:00.612Z,20
2022-08-03T17:15:01.395Z,18
2022-08-03T17:16:01.863Z,16
2022-08-03T17:18:00.609Z,15
2022-08-03T17:19:01.944Z,16
2022-08-03T17:20:00.613Z,15
2022-08-03T17:22:00.609Z,14
2022-08-03T17:23:00.858Z,15
2022-08-03T17:24:01.699Z,14
2022-08-03T17:25:00.611Z,15
2022-08-03T17:27:00.677Z,18
2022-08-03T17:28:42.629Z,17
2022-08-03T17:29:01.666Z,18
2022-08-03T17:30:00.616Z,17
2022-08-03T17:31:00.613Z,18
2022-08-03T17:32:00.647Z,16
2022-08-03T17:34:00.779Z,15
2022-08-03T17:35:00.615Z,17
2022-08-03T17:36:00.611Z,18
2022-08-03T17:37:04.981Z,20
2022-08-03T17:38:05.864Z,19
2022-08-03T17:39:00.656Z,21
2022-08-03T17:40:00.671Z,20
2022-08-03T17:42:00.659Z,16
2022-08-03T17:43:00.612Z,17
2022-08-03T17:45:01.883Z,18
2022-08-03T17:46:00.611Z,19
2022-08-03T17:47:00.646Z,20
2022-08-03T17:49:00.611Z,18
2022-08-03T17:50:00.612Z,19
2022-08-03T17:51:00.614Z,21
2022-08-03T17:52:00.659Z,22
2022-08-03T17:54:00.614Z,24
2022-08-03T17:55:51.293Z,22
2022-08-03T17:56:04.289Z,19
2022-08-03T17:57:00.657Z,16
2022-08-03T17:59:00.591Z,13
2022-08-03T18:00:00.611Z,14
2022-08-03T18:01:00.611Z,16
2022-08-03T18:02:03.522Z,18
2022-08-03T18:03:00.630Z,17
2022-08-03T18:04:00.701Z,18
2022-08-03T18:05:00.878Z,17
2022-08-03T18:06:09.236Z,16
2022-08-03T18:07:00.664Z,15
2022-08-03T18:09:04.975Z,17
2022-08-03T18:10:03.053Z,16
2022-08-03T18:13:00.613Z,15
2022-08-03T18:14:00.614Z,16
2022-08-03T18:15:00.954Z,16
2022-08-03T18:18:01.996Z,17
2022-08-03T18:19:00.615Z,16
2022-08-03T18:20:00.857Z,15
2022-08-03T18:21:00.615Z,16
2022-08-03T18:22:02.343Z,17
2022-08-03T18:23:00.637Z,18
2022-08-03T18:25:00.615Z,19
2022-08-03T18:27:02.524Z,16
2022-08-03T18:30:00.621Z,15
2022-08-03T18:31:00.616Z,16
2022-08-03T18:32:02.683Z,17
2022-08-03T18:34:20.249Z,16
2022-08-03T18:41:00.696Z,15
2022-08-03T18:43:00.646Z,16
2022-08-03T18:44:07.413Z,17
2022-08-03T18:45:14.655Z,16
2022-08-03T18:47:04.837Z,15
2022-08-03T18:48:00.644Z,17
2022-08-03T18:49:00.619Z,16
2022-08-03T18:51:00.620Z,17
2022-08-03T18:53:00.658Z,16
2022-08-03T18:56:01.761Z,15
2022-08-03T19:00:00.619Z,16
2022-08-03T19:01:00.670Z,17
2022-08-03T19:02:04.049Z,18
2022-08-03T19:03:00.683Z,17
2022-08-03T19:05:00.619Z,15
2022-08-03T19:06:02.528Z,17
2022-08-03T19:07:00.685Z,16
2022-08-03T19:08:01.715Z,17
2022-08-03T19:09:00.619Z,18
2022-08-03T19:10:03.640Z,20
2022-08-03T19:11:00.983Z,21
2022-08-03T19:12:11.629Z,19
2022-08-03T19:14:00.608Z,18
2022-08-03T19:15:00.621Z,17
2022-08-03T19:16:00.640Z,15
2022-08-03T19:17:00.620Z,17
2022-08-03T19:18:00.620Z,19
2022-08-03T19:20:01.519Z,17
2022-08-03T19:22:00.619Z,16
2022-08-03T19:23:00.619Z,14
2022-08-03T19:26:00.684Z,15
2022-08-03T19:27:00.620Z,16
2022-08-03T19:28:00.620Z,17
2022-08-03T19:30:02.985Z,18
2022-08-03T19:31:02.533Z,16
2022-08-03T19:33:00.646Z,15
2022-08-03T19:35:00.619Z,14
2022-08-03T19:37:00.683Z,12
2022-08-03T19:38:00.646Z,13
2022-08-03T19:40:00.619Z,14
2022-08-03T19:41:00.621Z,15
2022-08-03T19:42:03.435Z,16
2022-08-03T19:43:00.663Z,15
2022-08-03T19:44:00.619Z,17
2022-08-03T19:45:00.620Z,17
2022-08-03T19:46:05.668Z,16
2022-08-03T19:48:00.648Z,17
2022-08-03T19:49:00.621Z,16
2022-08-03T19:50:06.383Z,15
2022-08-03T19:52:03.301Z,16
2022-08-03T20:00:03.300Z,18
2022-08-03T20:02:00.620Z,19
2022-08-03T20:03:00.685Z,18
2022-08-03T20:04:00.621Z,19
2022-08-03T20:05:00.714Z,17
2022-08-03T20:06:00.622Z,16
2022-08-03T20:07:00.632Z,15
2022-08-03T20:08:00.698Z,14